Morinville, Canada
Current Conditions -  °F | °C
As of 4:00 AM on Friday 24 Oct 2014 (Local Time) from CYED Reporting Station
Clear Clear  
Wind Chill: 31°   Ceiling: Unl
Heat Index: 39°   Visibility: 9mi
Dew Point: 32°   Wind: 15mph
Humidity: 75%   Direction: 260°W
Pressure: 29.68"   Gusts: 24mph
Location:  53.8°N, 113.65°W
Report Text: CYED 241000Z AUTO 26013G21KT 9SM CLR 04/M00 A2968 RMK SLP065
Loading
Personal Weather Stations






























Interactive Weather Map
Tropical Storm Tracking
New forecast layout! Learn more

10-Day Weather Forecast

Advertisements
Track Severe Weather on mobile